Time;durP1;ratioP1;P1;durP2;ratioP2;P2;SDS_P1;SDS_P2;PMS_P1;PMS_P2;Temp;Humidity;BMP_temperature;BMP_pressure;BME280_temperature;BME280_humidity;BME280_pressure;Samples;Min_cycle;Max_cycle;Signal;HPM_P1;HPM_P2
2022/06/22 00:01:18;;;;;;;35.17;11.45;;;21.50;99.90;;;;;;4915420;29;20388;-80
2022/06/22 00:03:49;;;;;;;23.73;9.90;;;21.40;99.90;;;;;;4916767;29;20031;-80
2022/06/22 00:06:26;;;;;;;30.25;11.30;;;21.40;99.90;;;;;;4935042;29;20087;-80
2022/06/22 00:08:52;;;;;;;30.65;10.30;;;21.30;99.90;;;;;;4934369;29;20039;-80
2022/06/22 00:11:20;;;;;;;26.13;9.82;;;21.30;99.90;;;;;;4935075;29;20038;-80
2022/06/22 00:13:52;;;;;;;29.83;10.38;;;21.40;99.90;;;;;;4935546;29;20058;-81
2022/06/22 00:16:23;;;;;;;26.80;9.68;;;21.30;99.90;;;;;;4935642;29;20557;-80
2022/06/22 00:18:50;;;;;;;23.77;9.10;;;21.40;99.90;;;;;;4934322;29;20032;-80
2022/06/22 00:21:34;;;;;;;22.75;9.48;;;21.30;99.90;;;;;;4933923;29;20031;-80
2022/06/22 00:24:22;;;;;;;32.83;8.70;;;21.30;99.90;;;;;;4932779;29;20370;-80
2022/06/22 00:27:13;;;;;;;26.13;8.10;;;21.40;99.90;;;;;;4940273;29;20059;-80
2022/06/22 00:29:39;;;;;;;20.63;7.32;;;21.40;99.90;;;;;;4935061;29;20072;-80
2022/06/22 00:32:25;;;;;;;22.38;7.30;;;21.50;99.90;;;;;;4935276;29;20033;-80
2022/06/22 00:34:50;;;;;;;17.70;7.32;;;21.50;99.90;;;;;;4933888;29;20032;-80
2022/06/22 00:37:21;;;;;;;25.65;7.65;;;21.50;99.90;;;;;;4934779;29;20110;-80
2022/06/22 00:39:50;;;;;;;26.98;7.03;;;21.50;99.90;;;;;;4936691;29;20560;-80
2022/06/22 00:42:25;;;;;;;26.45;6.93;;;21.40;99.90;;;;;;4939163;29;20486;-80
2022/06/22 00:45:08;;;;;;;25.25;7.25;;;21.50;99.90;;;;;;4939190;29;20098;-80
2022/06/22 00:47:45;;;;;;;22.88;7.72;;;21.50;99.90;;;;;;4939298;29;20024;-80
2022/06/22 00:50:21;;;;;;;28.10;9.32;;;21.40;99.90;;;;;;4938750;29;20024;-80
2022/06/22 00:52:53;;;;;;;28.17;9.55;;;21.40;99.90;;;;;;4939109;29;20036;-80
2022/06/22 00:55:24;;;;;;;24.10;7.78;;;21.40;99.90;;;;;;4939405;29;20031;-80
2022/06/22 00:58:02;;;;;;;;;;;21.40;99.90;;;;;;4937742;29;20156;-80
2022/06/22 01:00:32;;;;;;;24.13;9.07;;;21.40;99.90;;;;;;4918555;29;19919;-80
2022/06/22 01:03:34;;;;;;;36.78;10.90;;;21.40;99.90;;;;;;4935676;29;20032;-80
2022/06/22 01:06:07;;;;;;;25.73;10.25;;;21.40;99.90;;;;;;4926023;29;20027;-80
2022/06/22 01:08:52;;;;;;;28.13;11.50;;;21.30;99.90;;;;;;4937656;29;20032;-80
2022/06/22 01:14:18;;;;;;;26.52;10.43;;;21.30;99.90;;;;;;4938733;29;20054;-79
2022/06/22 01:16:46;;;;;;;27.92;11.50;;;21.30;99.90;;;;;;4929604;29;20031;-80
2022/06/22 01:19:30;;;;;;;26.95;11.13;;;21.40;99.90;;;;;;4938453;29;20031;-80
2022/06/22 01:22:16;;;;;;;23.08;11.02;;;21.40;99.90;;;;;;4924760;29;20044;-80
2022/06/22 01:25:10;;;;;;;33.67;11.65;;;21.40;99.90;;;;;;4938526;29;20023;-80
2022/06/22 01:27:39;;;;;;;28.10;11.80;;;21.40;99.90;;;;;;4938710;29;20035;-80
2022/06/22 01:30:30;;;;;;;28.80;12.38;;;21.30;99.90;;;;;;4938125;29;20022;-80
2022/06/22 01:32:56;;;;;;;34.97;12.30;;;21.30;99.90;;;;;;4932552;29;20043;-79
2022/06/22 01:35:30;;;;;;;29.95;11.73;;;21.30;99.90;;;;;;4938222;29;20027;-80
2022/06/22 01:37:56;;;;;;;24.33;11.75;;;21.40;99.90;;;;;;4938061;29;20034;-80
2022/06/22 01:40:25;;;;;;;30.15;11.52;;;21.30;99.90;;;;;;4937868;29;20024;-80
2022/06/22 01:42:56;;;;;;;27.90;11.95;;;21.30;99.90;;;;;;4937310;29;20485;-79
2022/06/22 01:45:39;;;;;;;24.43;12.00;;;21.30;99.90;;;;;;4938081;29;20169;-80
2022/06/22 01:48:23;;;;;;;31.92;11.20;;;21.20;99.90;;;;;;4937890;29;20465;-80
2022/06/22 01:50:58;;;;;;;25.92;10.73;;;21.20;99.90;;;;;;4938308;29;20038;-80
2022/06/22 01:53:39;;;;;;;29.48;11.60;;;21.20;99.90;;;;;;4937973;29;20031;-80
2022/06/22 01:56:27;;;;;;;28.13;11.60;;;21.20;99.90;;;;;;4932527;29;20059;-80
2022/06/22 01:59:02;;;;;;;29.38;11.68;;;21.30;99.90;;;;;;4925166;29;20036;-80
2022/06/22 02:01:35;;;;;;;28.42;11.68;;;21.30;99.90;;;;;;4937808;29;20043;-80
2022/06/22 02:04:33;;;;;;;22.95;11.05;;;21.20;99.90;;;;;;4937506;29;20027;-80
2022/06/22 02:10:24;;;;;;;27.92;10.73;;;21.20;99.90;;;;;;4919165;29;20521;-79
2022/06/22 02:13:24;;;;;;;23.00;10.85;;;21.30;99.90;;;;;;4917578;29;20067;-79
2022/06/22 02:15:56;;;;;;;28.02;10.70;;;21.20;99.90;;;;;;4917064;29;20042;-79
2022/06/22 02:18:26;;;;;;;27.98;10.43;;;21.20;99.90;;;;;;4918168;29;20413;-80
2022/06/22 02:20:52;;;;;;;27.67;10.98;;;21.20;99.90;;;;;;4937392;29;20167;-80
2022/06/22 02:23:23;;;;;;;22.52;10.13;;;21.10;99.90;;;;;;4937238;29;20504;-79
2022/06/22 02:26:08;;;;;;;24.33;10.45;;;21.10;99.90;;;;;;4937859;29;20024;-79
2022/06/22 02:28:33;;;;;;;22.83;9.80;;;21.10;99.90;;;;;;4934856;29;20414;-80
2022/06/22 02:31:01;;;;;;;22.83;11.05;;;21.10;99.90;;;;;;4936670;29;20023;-79
2022/06/22 02:33:27;;;;;;;22.92;11.05;;;21.10;99.90;;;;;;4937096;29;20078;-80
2022/06/22 02:35:55;;;;;;;25.02;12.07;;;21.20;99.90;;;;;;4937619;29;20106;-80
2022/06/22 02:38:21;;;;;;;20.73;10.90;;;21.20;99.90;;;;;;4936381;29;20027;-79
2022/06/22 02:46:21;;;;;;;28.48;12.27;;;21.10;99.90;;;;;;4937106;29;20034;-79
2022/06/22 02:48:54;;;;;;;23.30;12.80;;;21.10;99.90;;;;;;4937106;29;20028;-80
2022/06/22 02:51:27;;;;;;;23.00;12.15;;;21.10;99.90;;;;;;4936050;29;20077;-79
2022/06/22 02:53:56;;;;;;;24.85;11.70;;;21.10;99.90;;;;;;4935615;29;20043;-80
2022/06/22 02:56:42;;;;;;;23.92;11.80;;;21.00;99.90;;;;;;4936756;29;20024;-80
2022/06/22 02:59:10;;;;;;;28.30;9.82;;;21.10;99.90;;;;;;4936202;29;20118;-80
2022/06/22 03:01:38;;;;;;;35.97;11.70;;;21.00;99.90;;;;;;4936135;29;20505;-79
2022/06/22 03:04:11;;;;;;;25.27;10.77;;;21.00;99.90;;;;;;4936396;29;20027;-80
2022/06/22 03:06:50;;;;;;;22.75;9.82;;;21.00;99.90;;;;;;4936099;29;20046;-80
2022/06/22 03:09:17;;;;;;;22.63;8.48;;;21.10;99.90;;;;;;4935094;29;20023;-79
2022/06/22 03:11:47;;;;;;;34.33;9.43;;;21.00;99.90;;;;;;4935385;29;20028;-80
2022/06/22 03:14:20;;;;;;;21.30;7.60;;;21.00;99.90;;;;;;4936526;29;20027;-80
2022/06/22 03:16:53;;;;;;;27.90;7.15;;;20.90;99.90;;;;;;4936032;29;20027;-80
2022/06/22 03:19:26;;;;;;;23.88;6.40;;;20.90;99.90;;;;;;4927830;29;20486;-80
2022/06/22 03:21:51;;;;;;;19.58;5.32;;;20.80;99.90;;;;;;4917442;29;20533;-79
2022/06/22 03:24:23;;;;;;;27.45;5.82;;;20.90;99.90;;;;;;4917573;29;20051;-80
2022/06/22 03:26:56;;;;;;;15.88;5.65;;;20.80;99.90;;;;;;4916170;29;20032;-79
2022/06/22 03:29:35;;;;;;;15.40;5.53;;;20.60;99.90;;;;;;4916973;29;20024;-80
2022/06/22 03:32:15;;;;;;;16.70;5.65;;;20.60;99.90;;;;;;4922502;29;20102;-80
2022/06/22 03:34:46;;;;;;;12.75;5.65;;;20.30;99.90;;;;;;4936481;29;20028;-80
2022/06/22 03:37:24;;;;;;;18.17;6.03;;;20.30;99.90;;;;;;4935868;29;20038;-79
2022/06/22 03:39:56;;;;;;;14.70;6.22;;;20.40;99.90;;;;;;4934556;29;20528;-79
2022/06/22 03:42:36;;;;;;;19.25;7.00;;;20.40;99.90;;;;;;4935664;29;20482;-79
2022/06/22 03:45:14;;;;;;;16.23;7.22;;;20.30;99.90;;;;;;4933931;29;20087;-80
2022/06/22 03:48:01;;;;;;;15.77;7.25;;;20.00;99.90;;;;;;4936187;29;20035;-80
2022/06/22 03:50:59;;;;;;;16.55;7.45;;;20.10;99.90;;;;;;4936025;29;20031;-80
2022/06/22 03:54:02;;;;;;;14.07;7.68;;;20.20;99.90;;;;;;4935412;29;20494;-80
2022/06/22 03:56:33;;;;;;;18.17;7.47;;;20.10;99.90;;;;;;4935664;29;20039;-80
2022/06/22 03:59:01;;;;;;;14.30;6.53;;;20.10;99.90;;;;;;4931942;29;20051;-80
2022/06/22 04:01:27;;;;;;;20.70;8.40;;;20.00;99.90;;;;;;4935163;29;20035;-79
2022/06/22 04:03:55;;;;;;;16.10;7.88;;;20.00;99.90;;;;;;4935146;29;20028;-79
2022/06/22 04:06:31;;;;;;;19.40;8.40;;;19.90;99.90;;;;;;4935815;29;20070;-80
2022/06/22 04:08:57;;;;;;;21.25;9.63;;;20.00;99.90;;;;;;4935909;29;20036;-80
2022/06/22 04:11:40;;;;;;;13.68;8.00;;;19.90;99.90;;;;;;4934339;29;20110;-79
2022/06/22 04:14:18;;;;;;;16.13;8.02;;;19.90;99.90;;;;;;4933207;29;20054;-80
2022/06/22 04:16:48;;;;;;;20.45;9.23;;;19.90;99.90;;;;;;4935757;29;20032;-80
2022/06/22 04:19:21;;;;;;;19.70;10.30;;;19.90;99.90;;;;;;4934785;29;20023;-80
2022/06/22 04:21:59;;;;;;;18.88;9.93;;;19.90;99.90;;;;;;4935582;29;20569;-80
2022/06/22 04:24:33;;;;;;;21.65;10.10;;;19.80;99.90;;;;;;4934945;29;20023;-79
2022/06/22 04:27:38;;;;;;;17.00;9.55;;;19.90;99.90;;;;;;4935540;29;20028;-80
2022/06/22 04:30:16;;;;;;;20.90;8.90;;;19.90;99.90;;;;;;4878108;29;20415;-80
2022/06/22 04:32:53;;;;;;;18.00;9.52;;;19.80;99.90;;;;;;4894762;29;20626;-80
2022/06/22 04:35:42;;;;;;;20.65;9.90;;;19.90;99.90;;;;;;4894807;29;20127;-80
2022/06/22 04:38:08;;;;;;;20.33;10.05;;;19.90;99.90;;;;;;4894133;29;20129;-80
2022/06/22 04:40:41;;;;;;;21.38;10.13;;;19.90;99.90;;;;;;4894094;29;20040;-79
2022/06/22 04:43:09;;;;;;;15.57;9.52;;;19.80;99.90;;;;;;4894455;29;20402;-79
2022/06/22 04:45:40;;;;;;;17.10;9.55;;;19.70;99.90;;;;;;4894151;29;20475;-79
2022/06/22 04:48:19;;;;;;;21.45;10.70;;;19.80;99.90;;;;;;4895184;29;20055;-79
2022/06/22 04:50:48;;;;;;;26.55;10.77;;;19.70;99.90;;;;;;4894448;29;20036;-79
2022/06/22 04:53:44;;;;;;;24.20;10.45;;;19.90;99.90;;;;;;4894890;29;20487;-78
2022/06/22 04:56:19;;;;;;;22.25;11.13;;;19.80;99.90;;;;;;4890926;29;20039;-78
2022/06/22 04:58:55;;;;;;;23.75;10.77;;;19.90;99.90;;;;;;4893553;29;20471;-78
2022/06/22 05:01:30;;;;;;;21.05;10.98;;;19.90;99.90;;;;;;4894416;29;20052;-78
2022/06/22 05:04:04;;;;;;;21.95;12.30;;;19.90;99.90;;;;;;4890123;29;20084;-78
2022/06/22 05:06:45;;;;;;;16.17;10.40;;;19.90;99.90;;;;;;4924543;29;20134;-78
2022/06/22 05:09:40;;;;;;;25.25;10.57;;;20.00;99.90;;;;;;4931245;29;20478;-78
2022/06/22 05:12:18;;;;;;;21.92;10.93;;;19.70;99.90;;;;;;4929518;29;20028;-79
2022/06/22 05:14:45;;;;;;;29.05;12.25;;;19.80;99.90;;;;;;4924466;29;20111;-78
2022/06/22 05:17:28;;;;;;;19.50;11.20;;;19.80;99.90;;;;;;4936574;29;20394;-77
2022/06/22 06:10:42;;;;;;;18.08;10.30;;;20.60;99.90;;;;;;4876396;29;20521;-76
2022/06/22 06:13:22;;;;;;;23.23;10.73;;;20.60;99.90;;;;;;4876022;29;20033;-76
2022/06/22 06:15:52;;;;;;;21.65;11.70;;;20.70;99.90;;;;;;4877307;29;20108;-76
2022/06/22 06:18:26;;;;;;;28.63;12.40;;;20.60;99.90;;;;;;4878076;29;20083;-76
2022/06/22 06:21:04;;;;;;;19.63;11.43;;;20.60;99.90;;;;;;4877862;29;20036;-76
2022/06/22 06:23:45;;;;;;;20.27;11.30;;;20.60;99.90;;;;;;4877900;29;20036;-76
2022/06/22 06:29:21;;;;;;;23.63;12.15;;;20.50;99.90;;;;;;4879285;29;20035;-77
2022/06/22 06:32:08;;;;;;;20.63;11.80;;;20.50;99.90;;;;;;4877678;29;20029;-77
2022/06/22 06:34:48;;;;;;;22.08;12.32;;;20.50;99.90;;;;;;4876688;29;20026;-76
2022/06/22 06:37:19;;;;;;;24.20;12.18;;;20.50;99.90;;;;;;4874092;29;20025;-77
2022/06/22 06:39:51;;;;;;;19.98;10.85;;;20.60;99.90;;;;;;4877974;29;20025;-77
2022/06/22 06:42:17;;;;;;;21.13;11.02;;;20.60;99.90;;;;;;4876227;29;20025;-77
2022/06/22 06:44:44;;;;;;;17.55;10.73;;;20.60;99.90;;;;;;4877886;29;20029;-77
2022/06/22 06:47:15;;;;;;;21.30;11.70;;;20.60;99.90;;;;;;4877898;29;20108;-74
2022/06/22 06:49:53;;;;;;;17.50;10.98;;;20.70;99.90;;;;;;4878369;29;20468;-75
2022/06/22 06:52:56;;;;;;;21.35;10.63;;;20.80;99.90;;;;;;4892583;29;20036;-77
2022/06/22 06:55:34;;;;;;;18.02;10.68;;;20.70;99.90;;;;;;4876660;29;20059;-78
2022/06/22 06:58:26;;;;;;;19.58;9.50;;;20.70;99.90;;;;;;4879623;29;20017;-76
2022/06/22 07:00:52;;;;;;;17.55;10.00;;;20.70;99.90;;;;;;4876055;29;20120;-76
2022/06/22 07:03:24;;;;;;;18.95;10.18;;;20.80;99.90;;;;;;4880114;29;20444;-76
2022/06/22 07:05:50;;;;;;;17.33;10.25;;;20.80;99.90;;;;;;4880163;29;20033;-76
2022/06/22 07:08:17;;;;;;;18.63;9.75;;;20.80;99.90;;;;;;4882001;29;20045;-77
2022/06/22 07:10:46;;;;;;;20.95;10.07;;;21.00;99.90;;;;;;4902856;29;20521;-77
2022/06/22 07:13:19;;;;;;;15.85;9.00;;;21.20;99.90;;;;;;4898010;29;20128;-77
2022/06/22 07:15:50;;;;;;;15.38;9.57;;;21.40;99.90;;;;;;4898290;29;20471;-77
2022/06/22 07:18:30;;;;;;;20.10;9.30;;;21.40;99.90;;;;;;4897747;29;20036;-77
2022/06/22 07:21:16;;;;;;;18.70;9.98;;;21.40;99.90;;;;;;4897811;29;20287;-77
2022/06/22 07:24:03;;;;;;;14.43;9.10;;;21.20;99.90;;;;;;4897940;29;20025;-76
2022/06/22 07:26:50;;;;;;;17.85;9.57;;;21.30;99.90;;;;;;4889692;29;20499;-76
2022/06/22 07:29:52;;;;;;;19.08;9.75;;;21.20;99.90;;;;;;4902504;29;20024;-76
2022/06/22 07:32:38;;;;;;;21.35;8.27;;;21.20;99.90;;;;;;4897437;29;20447;-77
2022/06/22 07:35:30;;;;;;;16.48;8.65;;;21.20;99.90;;;;;;4861845;29;20112;-76
2022/06/22 07:38:01;;;;;;;;;;;21.10;99.90;;;;;;4869586;29;20038;-77
2022/06/22 07:40:28;;;;;;;13.98;8.40;;;21.10;99.90;;;;;;4869118;29;19916;-77
2022/06/22 07:42:56;;;;;;;15.52;8.82;;;21.20;99.90;;;;;;4874622;29;20274;-77
2022/06/22 07:45:24;;;;;;;15.18;8.38;;;21.30;99.90;;;;;;4868604;29;20029;-77
2022/06/22 07:47:54;;;;;;;15.40;9.05;;;21.40;99.90;;;;;;4869093;29;20024;-77
2022/06/22 07:50:34;;;;;;;17.30;9.43;;;21.40;99.90;;;;;;4866057;29;20033;-77
2022/06/22 07:53:14;;;;;;;19.85;8.32;;;21.40;99.90;;;;;;4849730;29;20535;-77
2022/06/22 07:56:04;;;;;;;16.45;8.50;;;21.30;99.90;;;;;;4870685;29;20444;-78
2022/06/22 08:47:16;;;;;;;9.63;3.58;;;23.20;99.90;;;;;;6042488;23;21228;31
2022/06/22 08:50:00;;;;;;;8.25;3.33;;;23.90;99.90;;;;;;4923895;29;20051;-78
2022/06/22 08:52:57;;;;;;;9.43;3.67;;;24.30;99.90;;;;;;4922301;29;20468;-75
2022/06/22 08:55:27;;;;;;;12.85;4.05;;;24.40;99.90;;;;;;4917112;29;20047;-75
2022/06/22 08:58:08;;;;;;;4.93;2.92;;;24.60;99.90;;;;;;4947292;29;20060;-75
2022/06/22 09:00:42;;;;;;;14.80;3.42;;;24.80;99.90;;;;;;4930623;29;20035;-76
2022/06/22 09:03:45;;;;;;;32.80;4.05;;;25.20;99.90;;;;;;4935600;29;20556;-75
2022/06/22 09:06:25;;;;;;;10.73;3.38;;;25.50;99.90;;;;;;4938035;29;20485;-75
2022/06/22 09:09:06;;;;;;;8.55;3.08;;;25.60;99.30;;;;;;4938839;29;20059;-75
2022/06/22 09:11:40;;;;;;;5.75;2.85;;;25.70;98.60;;;;;;4932606;29;20040;-75
2022/06/22 09:14:40;;;;;;;9.70;3.17;;;26.00;97.10;;;;;;4923487;29;20084;-76
2022/06/22 09:17:08;;;;;;;7.97;3.17;;;26.20;96.10;;;;;;4933742;29;20065;-75
2022/06/22 09:19:59;;;;;;;4.30;2.78;;;26.20;95.50;;;;;;4933036;29;20035;-76
2022/06/22 09:22:46;;;;;;;6.70;2.92;;;26.30;94.70;;;;;;4923589;29;20394;-76
2022/06/22 09:25:43;;;;;;;6.18;2.80;;;26.30;93.20;;;;;;4919488;29;20020;-75
2022/06/22 09:28:32;;;;;;;4.90;2.53;;;26.60;93.70;;;;;;4933930;29;20028;-75
2022/06/22 09:31:04;;;;;;;6.20;3.15;;;26.50;92.40;;;;;;4919115;29;20413;-76
2022/06/22 09:33:33;;;;;;;8.93;2.90;;;26.70;92.20;;;;;;4922139;29;20067;-75
2022/06/22 09:36:22;;;;;;;8.40;2.67;;;26.70;91.70;;;;;;4949692;28;20073;-75
2022/06/22 09:39:17;;;;;;;5.80;2.80;;;26.60;92.10;;;;;;4920644;29;20044;-75
2022/06/22 09:42:00;;;;;;;10.75;2.75;;;25.90;92.60;;;;;;4934353;29;20166;-75
2022/06/22 09:44:28;;;;;;;4.00;2.08;;;25.80;92.10;;;;;;4925166;29;20382;-75
2022/06/22 09:47:19;;;;;;;5.63;2.40;;;25.90;92.00;;;;;;4926482;29;20038;-75
2022/06/22 09:50:04;;;;;;;7.75;2.50;;;25.70;91.00;;;;;;4909362;29;20040;-76
2022/06/22 09:53:11;;;;;;;5.47;2.33;;;25.70;91.30;;;;;;4907224;29;20108;-76
2022/06/22 09:58:48;;;;;;;10.13;2.97;;;25.70;90.50;;;;;;4909926;29;20040;-74
2022/06/22 10:01:19;;;;;;;4.85;2.40;;;25.80;90.60;;;;;;4899429;29;20360;-78
2022/06/22 10:04:22;;;;;;;6.78;2.72;;;26.10;90.60;;;;;;4916444;29;20031;-75
2022/06/22 10:07:16;;;;;;;9.82;2.63;;;26.70;88.60;;;;;;4918693;29;20025;-76
2022/06/22 10:09:53;;;;;;;5.57;2.70;;;26.50;90.10;;;;;;4904283;29;20079;-73
2022/06/22 10:12:53;;;;;;;6.43;2.63;;;26.60;88.50;;;;;;4917257;29;20016;-73
2022/06/22 10:15:38;;;;;;;11.38;2.92;;;27.00;85.70;;;;;;4875964;29;20072;-75
2022/06/22 10:18:42;;;;;;;8.63;2.83;;;26.70;85.10;;;;;;4867396;29;20512;-74
2022/06/22 10:21:50;;;;;;;7.18;2.63;;;26.40;88.00;;;;;;4823608;29;20058;-81
2022/06/22 10:24:40;;;;;;;11.20;2.70;;;26.90;88.20;;;;;;4768841;30;20406;-78
2022/06/22 10:27:11;;;;;;;7.78;2.60;;;27.70;85.70;;;;;;4768471;30;20200;-83
2022/06/22 10:30:14;;;;;;;5.43;2.40;;;28.10;84.10;;;;;;4768162;30;20047;-79
2022/06/22 10:33:18;;;;;;;7.97;2.30;;;28.70;83.40;;;;;;4764983;30;20066;-79
2022/06/22 10:35:47;;;;;;;7.72;2.45;;;28.30;79.30;;;;;;4764968;30;20032;-75
2022/06/22 10:38:15;;;;;;;9.20;2.90;;;27.70;80.30;;;;;;4768047;30;20044;-77
2022/06/22 10:46:27;;;;;;;6.82;2.80;;;28.30;78.10;;;;;;4767408;30;20035;-73
2022/06/22 10:49:11;;;;;;;4.22;2.28;;;28.00;79.70;;;;;;4765872;30;20055;-79
2022/06/22 10:52:10;;;;;;;8.02;2.50;;;27.90;79.70;;;;;;4778890;29;20440;-77
2022/06/22 10:54:44;;;;;;;22.63;2.67;;;28.20;80.00;;;;;;4793557;29;20042;-73
2022/06/22 10:57:32;;;;;;;4.95;2.38;;;28.70;78.10;;;;;;4811965;29;20102;-73
2022/06/22 11:00:17;;;;;;;5.45;2.40;;;28.70;78.40;;;;;;4839593;29;20052;-77
2022/06/22 11:03:13;;;;;;;6.22;2.30;;;28.70;77.20;;;;;;4909754;29;20028;-77
2022/06/22 11:06:00;;;;;;;6.25;2.70;;;28.30;77.00;;;;;;4922584;29;20401;-76
2022/06/22 11:08:56;;;;;;;4.10;2.63;;;28.30;76.70;;;;;;4916367;29;20064;-75
2022/06/22 11:11:46;;;;;;;2.83;1.90;;;28.50;75.00;;;;;;4916797;29;20028;-83
2022/06/22 11:14:33;;;;;;;7.68;2.58;;;28.80;75.40;;;;;;4927572;29;20087;-76
2022/06/22 11:17:39;;;;;;;9.05;2.10;;;28.70;74.80;;;;;;4918272;29;20564;-76
2022/06/22 11:20:37;;;;;;;4.07;1.83;;;29.30;74.10;;;;;;4925567;29;20037;-77
2022/06/22 11:23:20;;;;;;;7.85;2.95;;;28.80;72.90;;;;;;4911391;29;20067;-78
2022/06/22 11:32:19;;;;;;;6.72;2.55;;;29.30;72.50;;;;;;4915315;29;20523;-76
2022/06/22 11:35:03;;;;;;;5.38;2.50;;;28.80;72.30;;;;;;4915934;29;20015;-76
2022/06/22 11:37:38;;;;;;;7.20;2.60;;;29.10;71.60;;;;;;4915952;29;20024;-76
2022/06/22 11:40:03;;;;;;;7.43;2.60;;;29.50;71.30;;;;;;4912533;29;20144;-76
2022/06/22 11:42:55;;;;;;;3.10;1.95;;;29.60;71.00;;;;;;4913280;29;20485;-77
2022/06/22 11:45:51;;;;;;;5.30;2.67;;;29.20;70.30;;;;;;4918326;29;20016;-76
2022/06/22 11:48:29;;;;;;;6.68;2.60;;;28.90;71.20;;;;;;4915135;29;20111;-76
2022/06/22 11:51:19;;;;;;;7.22;2.45;;;29.40;70.40;;;;;;4921961;29;20075;-77
2022/06/22 11:54:18;;;;;;;6.22;2.30;;;29.30;70.80;;;;;;4915614;29;20043;-76
2022/06/22 11:57:02;;;;;;;7.90;2.25;;;29.70;70.00;;;;;;4915132;29;20043;-76
2022/06/22 11:59:47;;;;;;;10.15;2.35;;;29.90;69.30;;;;;;4926251;29;20453;-76
2022/06/22 12:02:39;;;;;;;8.60;2.20;;;29.40;67.30;;;;;;4920435;29;20086;-76
2022/06/22 12:05:31;;;;;;;5.30;2.20;;;29.10;69.20;;;;;;4919206;29;20039;-76
2022/06/22 12:08:32;;;;;;;5.13;2.28;;;29.40;67.20;;;;;;4920246;29;20028;-76
2022/06/22 12:11:09;;;;;;;9.48;2.67;;;29.30;66.90;;;;;;4915078;29;20024;-76
2022/06/22 12:17:02;;;;;;;9.68;2.70;;;29.70;68.40;;;;;;4915015;29;20031;-77
2022/06/22 12:19:27;;;;;;;11.45;2.72;;;29.70;67.40;;;;;;4917808;29;20029;-76
2022/06/22 12:22:17;;;;;;;8.25;2.00;;;29.90;67.30;;;;;;4929897;29;20035;-76
2022/06/22 12:24:52;;;;;;;7.03;2.40;;;30.00;67.30;;;;;;4913581;29;20108;-77
2022/06/22 12:27:28;;;;;;;8.07;2.63;;;29.80;66.40;;;;;;4916546;29;20955;-77
2022/06/22 12:30:18;;;;;;;5.00;1.70;;;29.10;67.70;;;;;;4916245;29;20027;-76
2022/06/22 12:32:52;;;;;;;9.02;2.85;;;28.80;66.60;;;;;;4914478;29;20434;-76
2022/06/22 12:35:47;;;;;;;5.55;2.25;;;28.80;68.50;;;;;;4915621;29;20028;-76
2022/06/22 12:38:34;;;;;;;6.68;2.45;;;28.60;67.80;;;;;;4912885;29;20752;-77
2022/06/22 12:41:22;;;;;;;6.00;2.17;;;28.40;69.20;;;;;;4910319;29;20036;-76
2022/06/22 12:44:13;;;;;;;8.48;2.92;;;28.90;67.10;;;;;;4925241;29;20021;-76
2022/06/22 12:47:08;;;;;;;10.40;2.92;;;29.30;66.30;;;;;;4910588;29;20071;-76
2022/06/22 12:50:27;;;;;;;11.63;3.10;;;30.00;67.10;;;;;;4915459;29;20087;-76
2022/06/22 12:52:59;;;;;;;9.27;2.83;;;30.30;66.40;;;;;;4915159;29;20038;-76
2022/06/22 12:55:34;;;;;;;11.82;2.78;;;30.60;65.40;;;;;;4911383;29;20185;-76
2022/06/22 12:58:16;;;;;;;6.70;2.25;;;30.30;64.80;;;;;;4910070;29;20019;-76
2022/06/22 13:00:42;;;;;;;;;;;30.70;65.60;;;;;;4914894;29;20028;-76
2022/06/22 13:03:16;;;;;;;11.85;2.63;;;30.00;63.00;;;;;;4926004;29;19922;-76
2022/06/22 13:05:41;;;;;;;10.88;3.03;;;30.00;64.40;;;;;;4921921;29;20099;-76
2022/06/22 13:08:16;;;;;;;8.15;2.20;;;29.40;65.60;;;;;;4916231;29;20174;-77
2022/06/22 13:10:45;;;;;;;7.15;2.42;;;29.70;64.50;;;;;;4912857;29;20024;-76
2022/06/22 13:13:13;;;;;;;9.07;2.88;;;29.60;65.90;;;;;;4913531;29;20530;-76
2022/06/22 13:15:54;;;;;;;9.63;2.40;;;29.80;64.80;;;;;;4913197;29;20068;-77
2022/06/22 13:18:30;;;;;;;6.15;2.25;;;30.00;66.80;;;;;;4927875;29;20028;-76
2022/06/22 13:21:33;;;;;;;10.05;2.90;;;29.90;65.10;;;;;;4914531;29;20489;-76
2022/06/22 13:24:10;;;;;;;10.13;2.72;;;30.00;63.60;;;;;;4894915;29;20099;-76
2022/06/22 13:27:17;;;;;;;6.07;2.47;;;30.10;63.80;;;;;;4914286;29;20016;-76
2022/06/22 13:30:15;;;;;;;9.52;2.42;;;30.40;63.30;;;;;;4908361;29;20493;-77
2022/06/22 13:32:48;;;;;;;34.92;3.50;;;30.40;64.10;;;;;;4912867;29;20040;-75
2022/06/22 13:35:26;;;;;;;12.48;2.92;;;29.80;64.90;;;;;;4910122;29;20541;-77
2022/06/22 13:38:35;;;;;;;7.55;2.58;;;29.80;64.30;;;;;;4904847;29;20040;-77
2022/06/22 13:41:24;;;;;;;8.93;2.75;;;29.90;65.00;;;;;;4888735;29;20045;-76
2022/06/22 13:44:10;;;;;;;13.55;2.72;;;30.40;63.80;;;;;;4907571;29;20103;-77
2022/06/22 13:47:04;;;;;;;11.57;2.65;;;30.40;63.30;;;;;;4909720;29;20099;-76
2022/06/22 13:53:10;;;;;;;6.78;2.53;;;30.00;62.20;;;;;;4903391;29;20047;-76
2022/06/22 13:55:45;;;;;;;12.00;2.85;;;29.80;62.80;;;;;;4902978;29;20038;-75
2022/06/22 13:58:22;;;;;;;6.95;2.75;;;30.10;62.80;;;;;;4907886;29;20486;-74
2022/06/22 15:10:41;;;;;;;11.85;3.03;;;30.40;60.40;;;;;;5137385;23;20051;-77
2022/06/22 15:13:25;;;;;;;7.22;3.28;;;30.40;60.80;;;;;;4911871;29;20473;-76
2022/06/22 15:16:10;;;;;;;11.23;2.92;;;30.20;61.80;;;;;;4916546;29;20024;-77
2022/06/22 15:18:58;;;;;;;4.82;2.05;;;30.30;61.20;;;;;;4912888;29;20024;-77
2022/06/22 15:21:44;;;;;;;11.48;2.50;;;30.40;61.60;;;;;;4912993;29;20116;-76
2022/06/22 15:24:15;;;;;;;6.20;2.53;;;30.30;61.10;;;;;;4905407;29;20098;-78
2022/06/22 15:27:01;;;;;;;13.05;2.80;;;30.10;61.90;;;;;;4929867;29;20106;-71
2022/06/22 15:29:48;;;;;;;11.20;2.53;;;30.30;61.30;;;;;;4917374;29;20024;-75
2022/06/22 15:32:23;;;;;;;9.13;2.85;;;30.40;60.70;;;;;;4917123;29;20036;-76
2022/06/22 15:35:03;;;;;;;16.65;3.25;;;30.40;60.60;;;;;;4913865;29;20103;-75
2022/06/22 15:37:58;;;;;;;11.50;2.90;;;30.40;59.70;;;;;;4921637;29;20030;-72
2022/06/22 15:40:49;;;;;;;11.82;3.05;;;30.50;59.60;;;;;;4904755;29;20119;-74
2022/06/22 15:43:48;;;;;;;13.37;3.37;;;30.30;59.30;;;;;;4915942;29;20027;-71
2022/06/22 15:46:38;;;;;;;8.73;2.72;;;30.20;61.10;;;;;;4916652;29;20271;-71
2022/06/22 15:49:23;;;;;;;6.22;2.13;;;30.50;60.10;;;;;;4919171;29;20023;-71
2022/06/22 15:52:12;;;;;;;15.32;3.08;;;30.50;59.70;;;;;;4916545;29;20120;-71
2022/06/22 15:54:47;;;;;;;4.35;2.00;;;30.50;60.00;;;;;;4918560;29;20035;-71
2022/06/22 15:57:41;;;;;;;11.18;2.45;;;30.40;58.90;;;;;;4900706;29;20039;-72
2022/06/22 16:00:31;;;;;;;11.93;2.60;;;30.60;59.80;;;;;;4924008;29;20040;-72
2022/06/22 16:02:57;;;;;;;6.82;2.30;;;30.40;58.90;;;;;;4924079;29;20039;-72
2022/06/22 16:05:32;;;;;;;8.07;2.20;;;30.50;59.60;;;;;;4910635;29;20028;-71
2022/06/22 16:08:10;;;;;;;10.10;2.80;;;30.40;58.90;;;;;;4909790;29;20073;-72
2022/06/22 16:14:10;;;;;;;7.55;2.65;;;30.40;59.00;;;;;;4921814;29;20043;-71
2022/06/22 16:16:57;;;;;;;8.25;2.47;;;30.20;58.80;;;;;;4925579;29;20450;-72
2022/06/22 16:19:34;;;;;;;7.40;2.15;;;29.90;59.00;;;;;;4915991;29;20083;-70
2022/06/22 16:22:10;;;;;;;10.45;2.33;;;29.50;59.90;;;;;;4927974;29;20544;-70
2022/06/22 16:25:01;;;;;;;9.02;2.30;;;29.30;60.80;;;;;;4918080;29;20044;-70
2022/06/22 16:27:44;;;;;;;5.30;2.13;;;29.10;60.70;;;;;;4921498;29;20095;-70
2022/06/22 16:30:10;;;;;;;9.73;2.50;;;28.90;61.90;;;;;;4921691;29;20780;-70
2022/06/22 16:33:00;;;;;;;5.97;2.35;;;28.90;61.70;;;;;;4932048;29;20016;-70
2022/06/22 16:35:32;;;;;;;7.28;2.45;;;28.80;62.00;;;;;;4928861;29;20401;-73
2022/06/22 16:38:08;;;;;;;13.60;4.10;;;28.70;63.20;;;;;;4935019;29;20032;-75
2022/06/22 16:40:49;;;;;;;18.50;3.20;;;28.80;62.80;;;;;;4919240;29;20485;-75
2022/06/22 16:43:17;;;;;;;14.65;3.65;;;28.70;62.40;;;;;;4922700;29;20027;-73
2022/06/22 16:46:19;;;;;;;8.88;3.15;;;28.60;63.10;;;;;;4924962;29;20028;-73
2022/06/22 16:48:49;;;;;;;11.07;3.33;;;28.50;62.50;;;;;;4920397;29;20482;-71
2022/06/22 16:51:22;;;;;;;9.68;2.38;;;28.60;63.30;;;;;;4933718;29;20433;-73
2022/06/22 16:54:17;;;;;;;12.15;3.00;;;28.60;63.00;;;;;;4916097;29;20032;-73
2022/06/22 16:56:44;;;;;;;9.60;2.65;;;28.70;62.40;;;;;;4921747;29;20139;-73
2022/06/22 16:59:19;;;;;;;11.15;2.40;;;28.80;62.00;;;;;;4921569;29;20031;-73
2022/06/22 17:01:55;;;;;;;6.88;2.13;;;28.70;61.50;;;;;;4925414;29;20064;-73
2022/06/22 17:04:26;;;;;;;7.65;2.42;;;28.90;61.70;;;;;;4933111;29;20032;-73
2022/06/22 17:06:52;;;;;;;;;;;28.90;61.60;;;;;;4924268;29;20024;-73
2022/06/22 17:09:27;;;;;;;8.90;2.30;;;28.70;61.60;;;;;;4921866;29;19925;-73
2022/06/22 17:11:56;;;;;;;7.45;2.10;;;28.50;62.40;;;;;;4924184;29;20064;-73